Time;durP1;ratioP1;P1;durP2;ratioP2;P2;SDS_P1;SDS_P2;PMS_P1;PMS_P2;Temp;Humidity;BMP_temperature;BMP_pressure;BME280_temperature;BME280_humidity;BME280_pressure;Samples;Min_cycle;Max_cycle;Signal;HPM_P1;HPM_P2
2021/11/22 07:16:33;;;;;;;42.15;10.72;;;;;;;3.58;91.45;98978.69;1836411;76;22802;-80
2021/11/22 07:19:00;;;;;;;555.27;295.77;;;;;;;3.59;91.59;98981.70;1834114;76;21492;-83
2021/11/22 07:21:27;;;;;;;66.42;60.03;;;;;;;3.62;90.90;98985.58;1831167;76;21047;-82
2021/11/22 07:23:54;;;;;;;82.12;68.37;;;;;;;3.72;90.96;98987.30;1839419;77;21062;-82
2021/11/22 07:26:20;;;;;;;53.23;16.15;;;;;;;3.83;90.97;98989.86;1812406;77;21071;-82
2021/11/22 07:28:47;;;;;;;50.63;21.85;;;;;;;3.90;90.91;98985.56;1844941;77;20914;-82
2021/11/22 07:31:14;;;;;;;1509.13;758.50;;;;;;;3.96;90.75;98990.73;1841396;77;20982;-82
2021/11/22 07:33:41;;;;;;;33.00;14.25;;;;;;;4.01;90.84;98992.86;1842256;76;21030;-81
2021/11/22 07:36:08;;;;;;;32.20;11.78;;;;;;;4.07;90.36;98994.58;1839765;77;20952;-83
2021/11/22 07:38:35;;;;;;;31.35;11.22;;;;;;;4.21;91.85;98994.13;1837159;77;20995;-81
2021/11/22 07:41:03;;;;;;;28.20;10.55;;;;;;;4.17;91.72;99010.00;1836150;77;20986;-90
2021/11/22 07:43:29;;;;;;;31.82;12.30;;;;;;;4.17;90.63;99002.28;1845215;77;21011;-81
2021/11/22 07:45:56;;;;;;;34.27;12.78;;;;;;;4.22;90.00;98992.01;1847367;77;21013;-81
2021/11/22 07:48:23;;;;;;;29.30;10.40;;;;;;;4.27;91.17;98993.28;1758197;77;21158;-89
2021/11/22 07:50:49;;;;;;;30.95;10.85;;;;;;;4.36;91.11;98994.56;1661304;85;21527;-89
2021/11/22 07:53:16;;;;;;;25.20;10.18;;;;;;;4.45;90.70;98999.67;1661695;85;21096;-91
2021/11/22 07:55:45;;;;;;;26.07;10.10;;;;;;;4.53;90.56;98999.22;1657450;85;21227;-91
2021/11/22 07:58:11;;;;;;;23.02;8.03;;;;;;;4.57;90.17;98997.06;1658541;85;21068;-82
2021/11/22 08:00:38;;;;;;;26.50;8.68;;;;;;;4.54;90.41;98995.80;1663873;79;21097;-84
2021/11/22 08:03:04;;;;;;;26.27;8.78;;;;;;;4.64;90.04;99008.66;1663188;85;21016;-90
2021/11/22 08:05:32;;;;;;;22.05;8.40;;;;;;;4.70;90.01;99003.50;1661664;85;21274;-87
2021/11/22 08:08:00;;;;;;;26.05;10.10;;;;;;;4.73;89.94;99001.74;1663980;81;21071;-84
2021/11/22 08:10:28;;;;;;;20.35;10.05;;;;;;;4.76;88.85;99013.34;1672183;81;21051;-85
2021/11/22 08:13:03;;;;;;;32.35;11.22;;;;;;;4.79;88.62;99015.03;1681165;81;21079;-92
2021/11/22 08:15:32;;;;;;;32.65;12.40;;;;;;;4.80;89.48;99013.34;1677170;83;21004;-83
2021/11/22 08:18:02;;;;;;;27.73;12.20;;;;;;;4.79;88.33;99017.61;1703561;79;21145;-92
2021/11/22 08:21:26;;;;;;;41.33;13.15;;;;;;;4.94;89.49;99025.73;1864518;75;22788;-92
2021/11/22 08:23:53;;;;;;;30.27;12.30;;;;;;;4.90;90.00;99021.02;1816461;77;21518;-92
2021/11/22 08:26:19;;;;;;;27.93;12.98;;;;;;;4.88;89.89;99023.19;1825112;77;20995;-87
2021/11/22 08:28:46;;;;;;;32.65;15.25;;;;;;;4.82;88.57;99023.20;1824641;77;20963;-82
2021/11/22 08:31:12;;;;;;;24.47;11.48;;;;;;;4.86;88.73;99016.74;1816172;77;21049;-80
2021/11/22 08:33:39;;;;;;;25.32;10.93;;;;;;;4.89;88.10;99020.58;1786088;79;21527;-91
2021/11/22 08:36:05;;;;;;;28.55;12.05;;;;;;;4.91;87.61;99022.72;1777541;78;20990;-83
2021/11/22 08:38:32;;;;;;;22.10;9.40;;;;;;;4.95;87.42;99019.70;1760960;80;21065;-77
2021/11/22 08:40:58;;;;;;;24.37;9.88;;;;;;;4.97;88.07;99020.16;1776743;78;21038;-84
2021/11/22 08:44:14;;;;;;;25.88;11.88;;;;;;;4.96;87.24;99010.69;1815171;75;28016;-81
2021/11/22 08:46:41;;;;;;;27.85;11.60;;;;;;;4.98;88.30;99011.54;1786652;78;21014;-80
2021/11/22 08:49:08;;;;;;;29.05;9.48;;;;;;;4.98;87.49;99008.97;1766819;80;22250;-78
2021/11/22 08:51:35;;;;;;;27.62;12.63;;;;;;;5.07;87.98;99008.05;1763272;80;21222;-88
2021/11/22 08:54:02;;;;;;;33.65;10.85;;;;;;;5.13;87.60;99000.73;1751485;79;20996;-81
2021/11/22 08:56:29;;;;;;;25.27;9.63;;;;;;;5.15;87.01;99002.87;1793832;77;21321;-82
2021/11/22 08:58:56;;;;;;;26.23;9.18;;;;;;;5.14;87.62;99002.47;1792539;78;20996;-80
2021/11/22 09:01:23;;;;;;;20.08;9.03;;;;;;;5.17;87.88;99011.45;1810811;77;20996;-80
2021/11/22 09:03:51;;;;;;;24.95;10.03;;;;;;;5.19;86.42;99014.88;1792372;77;21103;-81
2021/11/22 09:06:19;;;;;;;29.60;11.10;;;;;;;5.27;87.36;99011.86;1801117;78;21011;-81
2021/11/22 09:08:46;;;;;;;25.52;8.33;;;;;;;5.35;87.65;99009.22;1795049;79;21049;-81
2021/11/22 09:11:15;;;;;;;31.02;12.23;;;;;;;5.35;86.81;99011.80;1797650;79;20997;-81
2021/11/22 09:13:44;;;;;;;29.45;12.28;;;;;;;5.42;86.09;99006.19;1793981;79;21007;-80
2021/11/22 09:16:10;;;;;;;32.83;12.30;;;;;;;5.52;86.53;99003.98;1795191;78;20999;-79
2021/11/22 09:18:38;;;;;;;27.77;11.75;;;;;;;5.59;86.56;99004.38;1805165;78;21007;-82
2021/11/22 09:21:05;;;;;;;29.70;11.63;;;;;;;5.57;85.56;99003.09;1783913;78;21002;-83
2021/11/22 09:23:32;;;;;;;35.23;15.58;;;;;;;5.59;85.50;99005.66;1786250;78;20975;-83
2021/11/22 09:25:59;;;;;;;35.33;14.63;;;;;;;5.63;85.11;99007.36;1784452;78;21028;-83
2021/11/22 09:28:26;;;;;;;31.02;13.15;;;;;;;5.61;85.45;99000.06;1787937;79;20974;-83
2021/11/22 09:30:53;;;;;;;29.85;12.75;;;;;;;5.55;85.73;98999.66;1801069;79;20994;-82
2021/11/22 09:33:19;;;;;;;28.65;11.28;;;;;;;5.49;84.88;98994.95;1804415;79;20955;-84
2021/11/22 09:35:46;;;;;;;26.27;10.25;;;;;;;5.48;84.27;98997.13;1787383;79;20967;-82
2021/11/22 09:38:12;;;;;;;28.45;11.85;;;;;;;5.43;84.24;98995.00;1789946;78;21043;-82
2021/11/22 09:40:39;;;;;;;41.77;18.70;;;;;;;5.39;84.46;98991.58;1799391;78;21344;-82
2021/11/22 09:43:06;;;;;;;24.75;11.20;;;;;;;5.36;84.44;98996.77;1797493;78;21020;-82
2021/11/22 09:45:33;;;;;;;23.38;10.58;;;;;;;5.33;84.31;98991.20;1799739;78;20937;-82
2021/11/22 09:48:02;;;;;;;26.05;10.10;;;;;;;5.28;85.21;98983.91;1793082;78;20987;-82
2021/11/22 09:50:31;;;;;;;27.30;10.30;;;;;;;5.22;84.85;98989.55;1788215;78;21044;-83
2021/11/22 09:53:02;;;;;;;24.92;9.95;;;;;;;5.16;84.63;98980.13;1804768;79;21028;-82
2021/11/22 09:55:30;;;;;;;29.25;9.68;;;;;;;5.12;85.00;98988.73;1793305;78;21015;-82
2021/11/22 09:58:00;;;;;;;27.10;10.18;;;;;;;5.03;84.73;98981.03;1792370;79;20972;-82
2021/11/22 10:00:36;;;;;;;22.73;9.05;;;;;;;5.04;84.74;98981.47;1798096;79;20982;-81
2021/11/22 10:03:06;;;;;;;24.27;9.60;;;;;;;5.09;86.30;98971.98;1797477;79;20988;-82
2021/11/22 10:05:36;;;;;;;23.83;10.23;;;;;;;5.12;86.66;98983.14;1806868;79;21039;-81
2021/11/22 10:08:13;;;;;;;24.98;10.23;;;;;;;5.17;86.05;98980.53;1798253;78;21023;-82
2021/11/22 10:10:47;;;;;;;20.15;9.18;;;;;;;5.26;85.42;98970.18;1804687;78;20937;-82
2021/11/22 10:13:30;;;;;;;26.45;10.28;;;;;;;5.41;86.34;98969.66;1794233;78;21004;-83
2021/11/22 10:16:16;;;;;;;21.57;8.70;;;;;;;5.48;85.47;98970.91;1788707;78;21044;-83
2021/11/22 10:18:53;;;;;;;19.77;9.80;;;;;;;5.57;86.74;98966.10;1792783;79;21053;-82
2021/11/22 10:21:36;;;;;;;25.60;10.38;;;;;;;5.61;86.34;98968.23;1787325;78;20980;-81
2021/11/22 10:24:07;;;;;;;24.50;11.35;;;;;;;5.60;86.08;98967.83;1800853;79;21128;-82
2021/11/22 10:26:50;;;;;;;28.87;11.48;;;;;;;5.59;85.16;98968.27;1795952;79;21022;-83
2021/11/22 10:29:26;;;;;;;26.02;10.25;;;;;;;5.58;85.56;98963.52;1790706;78;21026;-82
2021/11/22 10:31:59;;;;;;;27.70;10.43;;;;;;;5.51;83.66;98963.57;1795141;78;21076;-82
2021/11/22 10:34:26;;;;;;;31.80;12.53;;;;;;;5.43;83.74;98966.64;1797598;78;21042;-81
2021/11/22 10:37:00;;;;;;;34.25;15.25;;;;;;;5.43;83.39;98958.91;1744730;81;21002;-82
2021/11/22 10:39:28;;;;;;;25.97;12.55;;;;;;;5.46;84.07;98963.61;1728378;82;20961;-82
2021/11/22 10:41:55;;;;;;;40.80;17.30;;;;;;;5.51;84.49;98960.99;1727842;82;20984;-83
2021/11/22 10:44:29;;;;;;;26.48;11.90;;;;;;;5.49;82.68;98961.03;1803586;79;21106;-82
2021/11/22 10:47:13;;;;;;;23.70;10.43;;;;;;;5.49;82.43;98967.47;1801375;78;20972;-83
2021/11/22 10:49:42;;;;;;;25.02;9.38;;;;;;;5.49;82.53;98966.59;1783360;78;21023;-83
2021/11/22 10:52:37;;;;;;;29.60;9.18;;;;;;;5.49;83.34;98970.05;1780943;78;21077;-82
2021/11/22 10:55:08;;;;;;;24.37;10.15;;;;;;;5.50;83.87;98967.03;1784656;78;21062;-82
2021/11/22 10:57:48;;;;;;;20.97;9.48;;;;;;;5.46;83.65;98970.50;1790762;79;21059;-80
2021/11/22 11:00:28;;;;;;;30.08;11.00;;;;;;;5.48;84.77;98972.63;1784996;79;21003;-84
2021/11/22 11:02:58;;;;;;;21.75;9.63;;;;;;;5.41;83.76;98965.79;1793299;78;21047;-80
2021/11/22 11:05:36;;;;;;;19.65;8.65;;;;;;;5.50;85.09;98973.48;1757423;80;21043;-81
2021/11/22 11:08:07;;;;;;;24.27;10.15;;;;;;;5.44;83.89;98965.78;1796032;78;21098;-82
2021/11/22 11:10:35;;;;;;;22.82;10.78;;;;;;;5.46;84.77;98964.91;1792577;78;20999;-80
2021/11/22 11:13:04;;;;;;;20.50;9.25;;;;;;;5.42;83.08;98964.50;1798755;78;20993;-80
2021/11/22 11:15:31;;;;;;;23.25;10.78;;;;;;;5.50;83.80;98964.45;1791676;78;20994;-82
2021/11/22 11:17:58;;;;;;;25.95;10.63;;;;;;;5.51;83.07;98958.41;1789461;79;21030;-80
2021/11/22 11:20:25;;;;;;;23.47;9.85;;;;;;;5.56;83.30;98957.97;1784916;79;20999;-82
2021/11/22 11:22:52;;;;;;;18.80;8.85;;;;;;;5.57;82.57;98950.22;1798900;79;21062;-83
2021/11/22 11:25:23;;;;;;;22.93;9.80;;;;;;;5.63;83.07;98958.36;1799693;79;21296;-80
2021/11/22 11:27:50;;;;;;;20.77;8.95;;;;;;;5.63;82.17;98958.36;1792776;79;20984;-90
2021/11/22 11:30:21;;;;;;;16.67;8.55;;;;;;;5.58;82.05;98948.48;1789776;79;21035;-81
2021/11/22 11:32:52;;;;;;;17.52;8.93;;;;;;;5.60;82.27;98951.91;1798263;78;20960;-82
2021/11/22 11:35:20;;;;;;;21.65;8.93;;;;;;;5.54;81.61;98957.12;1784794;78;20989;-81
2021/11/22 11:38:31;;;;;;;19.42;9.10;;;;;;;5.53;81.97;98960.14;1768013;79;21058;-81
2021/11/22 11:41:04;;;;;;;18.48;7.78;;;;;;;5.52;82.53;98957.13;1790137;78;21034;-86
2021/11/22 11:43:59;;;;;;;19.30;9.58;;;;;;;5.56;82.78;98957.52;1803151;78;20996;-81
2021/11/22 11:46:52;;;;;;;22.50;8.63;;;;;;;5.57;82.89;98963.53;1795895;78;21024;-79
2021/11/22 11:49:22;;;;;;;19.42;8.68;;;;;;;5.57;83.07;98964.81;1794747;79;21005;-81
2021/11/22 11:51:49;;;;;;;18.62;7.80;;;;;;;5.61;84.14;98973.39;1791365;79;20985;-81
2021/11/22 11:54:26;;;;;;;26.15;10.65;;;;;;;5.60;83.42;98967.83;1798486;78;21012;-81
2021/11/22 11:57:03;;;;;;;21.12;10.05;;;;;;;5.63;82.66;98969.95;1795525;78;21646;-79
2021/11/22 11:59:45;;;;;;;18.20;9.58;;;;;;;5.63;82.25;98963.52;1796921;79;21051;-81
2021/11/22 12:02:21;;;;;;;52.83;21.70;;;;;;;5.74;83.22;98968.14;1787969;78;21000;-83
2021/11/22 12:04:59;;;;;;;23.42;11.85;;;;;;;5.76;82.11;98965.55;1801616;79;20980;-81
2021/11/22 12:07:43;;;;;;;25.35;12.13;;;;;;;5.78;82.42;98965.95;1790505;79;21011;-80
2021/11/22 12:10:15;;;;;;;29.65;12.88;;;;;;;5.80;82.08;98963.81;1791380;79;21027;-78
2021/11/22 12:13:07;;;;;;;31.90;13.58;;;;;;;5.75;81.44;98958.70;1783131;78;21007;-81
2021/11/22 12:15:46;;;;;;;26.37;12.50;;;;;;;5.69;81.14;98969.03;1737049;81;21008;-80
2021/11/22 12:18:29;;;;;;;20.60;10.38;;;;;;;5.58;81.17;98967.83;1754316;80;21028;-81
2021/11/22 12:21:23;;;;;;;20.07;9.53;;;;;;;5.53;81.73;98972.16;1747908;80;21174;-81
2021/11/22 12:23:53;;;;;;;29.47;13.10;;;;;;;5.50;81.99;98968.32;1759758;81;21009;-81
2021/11/22 12:26:31;;;;;;;32.55;15.70;;;;;;;5.50;81.99;98968.32;1759273;80;21466;-79
2021/11/22 12:28:59;;;;;;;28.40;11.80;;;;;;;5.44;81.74;98973.08;1764092;80;21019;-80
2021/11/22 12:31:29;;;;;;;30.88;13.40;;;;;;;5.43;81.91;98962.77;1750170;80;21008;-80
2021/11/22 12:34:01;;;;;;;30.12;12.85;;;;;;;5.40;82.05;98973.12;1761163;81;21093;-81
2021/11/22 12:36:35;;;;;;;21.90;9.93;;;;;;;5.40;82.28;98975.25;1746549;80;21068;-80
2021/11/22 12:39:06;;;;;;;18.92;8.03;;;;;;;5.42;82.38;98974.81;1764727;80;21495;-82
2021/11/22 12:41:37;;;;;;;20.25;8.65;;;;;;;5.46;82.30;98976.95;1752776;80;20986;-81
2021/11/22 12:44:14;;;;;;;26.27;9.48;;;;;;;5.51;82.36;98984.20;1758200;80;21541;-79
2021/11/22 12:46:57;;;;;;;26.95;11.75;;;;;;;5.57;82.76;98989.31;1738637;81;21967;-80
2021/11/22 12:49:41;;;;;;;22.22;10.18;;;;;;;5.46;82.48;98980.37;1734810;81;21054;-80
2021/11/22 12:52:16;;;;;;;26.82;11.10;;;;;;;5.45;82.38;98981.66;1737825;81;21041;-80
2021/11/22 12:55:17;;;;;;;27.32;11.38;;;;;;;5.42;83.03;98978.68;1738628;81;21560;-80
2021/11/22 12:57:48;;;;;;;28.42;11.93;;;;;;;5.42;82.63;98969.66;1807689;78;20996;-80
2021/11/22 13:00:38;;;;;;;28.00;12.10;;;;;;;5.49;83.26;98976.91;1798977;78;21121;-80
2021/11/22 13:03:12;;;;;;;26.68;11.35;;;;;;;5.41;82.65;98965.34;1798400;78;21007;-80
2021/11/22 13:06:16;;;;;;;38.58;17.35;;;;;;;5.50;83.78;98979.92;1790978;78;21002;-80
2021/11/22 13:08:40;;;;;;;32.93;15.32;;;;;;;5.43;82.94;98982.98;1788046;78;21160;-79
2021/11/22 13:11:22;;;;;;;31.77;14.68;;;;;;;5.42;82.74;98989.44;1433565;79;10000567;-81
2021/11/22 13:13:56;;;;;;;38.17;15.05;;;;;;;5.44;82.67;98988.99;1718221;82;21711;-80
2021/11/22 13:16:23;;;;;;;37.25;16.50;;;;;;;5.44;82.57;98987.70;1731479;82;21070;-80
2021/11/22 13:18:53;;;;;;;35.52;14.20;;;;;;;5.37;82.37;98991.61;1712425;82;21087;-80
2021/11/22 13:21:43;;;;;;;33.10;14.60;;;;;;;5.36;82.28;98991.61;1729254;82;20980;-80
2021/11/22 13:24:14;;;;;;;30.27;13.70;;;;;;;5.33;82.44;98988.63;1708863;82;21032;-79
2021/11/22 13:26:43;;;;;;;34.55;15.28;;;;;;;5.33;82.40;98989.03;1732739;82;20988;-81
2021/11/22 13:29:24;;;;;;;31.25;14.87;;;;;;;5.26;82.30;98988.66;1735393;81;21051;-81
2021/11/22 13:31:54;;;;;;;31.12;12.55;;;;;;;5.24;82.45;98991.23;1728750;82;21019;-81
2021/11/22 13:34:25;;;;;;;29.15;11.60;;;;;;;5.20;82.26;98989.98;1722870;82;20968;-80
2021/11/22 13:36:53;;;;;;;26.62;11.97;;;;;;;5.16;82.54;98989.98;1734755;82;21008;-81
2021/11/22 13:39:27;;;;;;;36.53;12.93;;;;;;;5.15;82.58;98987.41;1728475;82;21015;-84
2021/11/22 13:42:12;;;;;;;30.55;11.55;;;;;;;5.17;82.75;98990.84;1739869;82;20988;-82
2021/11/22 13:44:43;;;;;;;25.43;11.28;;;;;;;5.22;82.90;98990.84;1709072;82;20995;-82
2021/11/22 13:47:18;;;;;;;28.67;11.88;;;;;;;5.26;83.57;98988.22;1726045;82;21031;-82
2021/11/22 13:49:45;;;;;;;35.78;13.93;;;;;;;5.26;83.46;98979.64;1725620;82;21064;-81
2021/11/22 13:52:12;;;;;;;42.05;15.78;;;;;;;5.28;83.25;98989.52;1734457;80;20985;-81
2021/11/22 13:54:39;;;;;;;27.42;11.57;;;;;;;5.33;83.50;98993.78;1735251;82;20999;-83
2021/11/22 13:57:10;;;;;;;28.47;12.63;;;;;;;5.35;84.00;98993.34;1731886;82;21071;-80
2021/11/22 13:59:41;;;;;;;39.58;16.00;;;;;;;5.34;83.92;98995.48;1716000;82;20989;-81
2021/11/22 14:02:14;;;;;;;33.60;15.23;;;;;;;5.37;83.43;98994.59;1735117;82;21046;-82
2021/11/22 14:04:50;;;;;;;34.88;15.88;;;;;;;5.32;82.72;98988.19;1703798;82;21036;-81
2021/11/22 14:07:20;;;;;;;32.75;13.50;;;;;;;5.25;82.39;98983.95;1722244;82;21166;-81
2021/11/22 14:09:51;;;;;;;31.90;14.63;;;;;;;5.24;82.86;98985.23;1726862;82;21020;-82
2021/11/22 14:12:34;;;;;;;32.65;14.40;;;;;;;5.26;82.91;98986.09;1727319;82;20985;-82
2021/11/22 14:15:02;;;;;;;;;;;;;;;5.23;82.87;99002.84;1737413;82;21031;-82
2021/11/22 14:17:30;;;;;;;32.42;14.47;;;;;;;5.22;82.95;98994.70;1731016;82;20143;-82
2021/11/22 14:20:09;;;;;;;35.92;15.53;;;;;;;5.20;82.71;98993.41;1727238;80;20992;-83
2021/11/22 14:22:46;;;;;;;30.10;13.13;;;;;;;5.11;82.46;98998.59;1721816;81;21036;-82
2021/11/22 14:25:28;;;;;;;30.27;12.98;;;;;;;5.08;82.53;99001.20;1731259;82;20998;-81
2021/11/22 14:27:59;;;;;;;24.95;12.60;;;;;;;5.04;82.79;99000.36;1736004;82;21011;-82
2021/11/22 14:30:35;;;;;;;26.55;12.53;;;;;;;5.02;82.84;99006.39;1734703;82;21000;-82
2021/11/22 14:33:27;;;;;;;30.85;12.95;;;;;;;4.99;82.91;99011.10;1722054;82;21007;-81
2021/11/22 14:36:01;;;;;;;30.15;13.68;;;;;;;4.97;82.92;99005.98;1660224;84;21180;-80
2021/11/22 14:38:32;;;;;;;31.40;15.15;;;;;;;4.94;82.97;99009.84;1682577;83;21125;-81
2021/11/22 14:41:13;;;;;;;31.42;12.55;;;;;;;4.95;82.85;99019.30;1647960;86;21051;-78
2021/11/22 14:43:50;;;;;;;32.42;12.35;;;;;;;4.89;82.96;99019.30;1653528;86;21122;-80
2021/11/22 14:46:25;;;;;;;40.90;17.32;;;;;;;4.90;83.00;99022.31;1681104;84;21013;-80
2021/11/22 14:48:58;;;;;;;32.55;16.65;;;;;;;4.90;83.10;99012.45;1663629;85;22227;-80
2021/11/22 14:51:47;;;;;;;32.58;12.80;;;;;;;4.93;83.43;99014.58;1671000;85;21552;-79
2021/11/22 14:54:21;;;;;;;32.45;12.82;;;;;;;4.93;83.51;99019.73;1665523;85;21063;-79
2021/11/22 14:56:58;;;;;;;35.90;16.37;;;;;;;4.95;83.53;99015.44;1671699;84;21127;-77
2021/11/22 14:59:35;;;;;;;77.35;29.87;;;;;;;4.96;83.57;99011.98;1671192;85;21040;-78
2021/11/22 15:02:11;;;;;;;33.53;15.48;;;;;;;5.02;84.13;99011.55;1673903;84;21158;-81
2021/11/22 15:04:43;;;;;;;24.15;11.95;;;;;;;5.04;84.02;99009.81;1676634;83;21542;-79
2021/11/22 15:07:26;;;;;;;24.72;12.63;;;;;;;5.04;83.99;99013.68;1668378;84;21051;-80
2021/11/22 15:10:09;;;;;;;30.00;13.83;;;;;;;5.05;83.99;99026.53;1667110;85;21083;-81
2021/11/22 15:12:38;;;;;;;45.63;20.32;;;;;;;5.06;83.59;99019.69;1675887;83;21096;-79
2021/11/22 15:15:14;;;;;;;38.92;17.35;;;;;;;5.12;83.54;99017.08;1671459;83;21061;-78
2021/11/22 15:17:45;;;;;;;33.42;14.65;;;;;;;5.14;83.45;99022.64;1668898;84;21569;-81
2021/11/22 15:20:14;;;;;;;34.75;14.50;;;;;;;5.19;83.45;99020.03;1670135;84;21103;-79
2021/11/22 15:22:42;;;;;;;35.45;16.55;;;;;;;5.22;83.45;99025.63;1661749;84;21064;-80
2021/11/22 15:25:12;;;;;;;30.50;14.20;;;;;;;5.23;82.91;99028.62;1673524;84;21013;-80
2021/11/22 15:27:39;;;;;;;29.52;14.30;;;;;;;5.23;82.97;99035.91;1673979;83;21277;-78
2021/11/22 15:30:11;;;;;;;34.55;14.13;;;;;;;5.23;83.00;99033.33;1674393;83;21059;-81
2021/11/22 15:32:37;;;;;;;38.55;15.20;;;;;;;5.23;82.87;99034.63;1675261;85;21056;-80
2021/11/22 15:35:07;;;;;;;47.78;18.55;;;;;;;5.22;82.81;99039.36;1670943;85;21052;-80
2021/11/22 15:37:34;;;;;;;38.67;17.15;;;;;;;5.23;82.90;99031.19;1667873;84;21046;-80
2021/11/22 15:40:03;;;;;;;33.83;15.28;;;;;;;5.23;82.93;99041.06;1672851;85;21570;-79
2021/11/22 15:42:31;;;;;;;37.05;16.48;;;;;;;5.22;82.81;99041.94;1672784;84;21547;-80
2021/11/22 15:45:01;;;;;;;43.73;19.23;;;;;;;5.22;82.91;99041.09;1667970;84;21137;-80
2021/11/22 15:47:28;;;;;;;48.00;19.85;;;;;;;5.21;82.83;99033.77;1674269;84;21133;-80
2021/11/22 15:49:55;;;;;;;44.08;17.77;;;;;;;5.20;82.68;99047.53;1671068;85;21052;-80
2021/11/22 15:52:21;;;;;;;37.85;14.83;;;;;;;5.09;82.22;99032.54;1676398;84;21575;-80
2021/11/22 15:54:49;;;;;;;34.48;14.00;;;;;;;5.09;82.33;99035.12;1673156;84;21105;-79
2021/11/22 15:57:37;;;;;;;118.65;38.23;;;;;;;5.11;82.59;99038.55;1671869;85;21063;-80
2021/11/22 16:00:12;;;;;;;187.35;52.62;;;;;;;5.11;82.80;99035.97;1633067;86;21055;-80
2021/11/22 16:02:38;;;;;;;321.40;84.65;;;;;;;5.12;83.05;99037.26;1628168;86;21017;-80
2021/11/22 16:05:05;;;;;;;103.38;36.42;;;;;;;5.12;82.98;99035.13;1632738;86;21450;-82
2021/11/22 16:07:32;;;;;;;140.15;52.80;;;;;;;5.16;83.40;99039.39;1635608;85;21062;-80
2021/11/22 16:09:59;;;;;;;336.27;91.53;;;;;;;5.19;83.43;99044.52;1633543;86;21087;-82
2021/11/22 16:12:26;;;;;;;441.95;124.47;;;;;;;5.16;83.19;99041.53;1668838;86;21081;-81
2021/11/22 16:14:53;;;;;;;121.33;38.45;;;;;;;5.20;83.35;99046.69;1642208;86;21015;-80
2021/11/22 16:17:19;;;;;;;61.05;23.35;;;;;;;5.26;83.50;99029.91;1629845;85;21273;-82
2021/11/22 16:19:47;;;;;;;44.27;19.00;;;;;;;5.30;83.37;99041.47;1633699;86;21196;-81
2021/11/22 16:22:14;;;;;;;38.33;16.48;;;;;;;5.35;83.20;99046.59;1634640;86;21162;-80
2021/11/22 16:24:40;;;;;;;76.55;27.58;;;;;;;5.42;82.97;99052.60;1649180;85;21063;-81
2021/11/22 16:27:07;;;;;;;217.82;70.78;;;;;;;5.42;83.42;99047.45;1637270;87;21087;-81
2021/11/22 16:29:41;;;;;;;122.92;37.65;;;;;;;5.36;82.86;99054.33;1639595;85;21107;-81
2021/11/22 16:32:06;;;;;;;121.62;36.60;;;;;;;5.31;82.49;99053.92;1638267;85;21078;-80
2021/11/22 16:34:32;;;;;;;127.90;36.55;;;;;;;5.30;82.84;99061.25;1641787;86;21082;-82
2021/11/22 16:37:00;;;;;;;198.50;51.83;;;;;;;5.26;82.63;99064.27;1639334;86;21437;-80
2021/11/22 16:39:26;;;;;;;101.38;33.80;;;;;;;5.19;82.53;99066.42;1662503;85;21069;-79
2021/11/22 16:41:54;;;;;;;55.63;22.42;;;;;;;5.16;82.54;99060.02;1656514;85;21075;-84
2021/11/22 16:44:22;;;;;;;60.28;25.35;;;;;;;5.17;82.58;99063.88;1648731;85;21042;-81
2021/11/22 16:46:52;;;;;;;43.85;18.75;;;;;;;5.11;82.58;99063.02;1639050;85;21048;-85
2021/11/22 16:49:18;;;;;;;62.98;29.55;;;;;;;5.09;82.54;99063.46;1645100;86;21212;-82
2021/11/22 16:51:46;;;;;;;50.48;21.60;;;;;;;5.01;82.65;99061.34;1634684;86;21059;-81
2021/11/22 16:54:13;;;;;;;37.33;17.25;;;;;;;4.99;82.97;99067.78;1652478;85;21047;-82
2021/11/22 16:56:41;;;;;;;37.10;16.40;;;;;;;4.98;82.87;99064.36;1620805;86;21118;-80
2021/11/22 16:59:10;;;;;;;40.60;17.67;;;;;;;4.94;83.06;99071.67;1640472;86;21116;-81
2021/11/22 17:01:40;;;;;;;42.00;17.52;;;;;;;4.92;83.02;99065.67;1639000;86;21110;-80
2021/11/22 17:04:08;;;;;;;39.78;16.80;;;;;;;4.93;83.32;99071.67;1651101;86;22213;-81
2021/11/22 17:06:36;;;;;;;34.73;13.75;;;;;;;4.94;83.42;99070.38;1643741;86;21074;-82
2021/11/22 17:09:09;;;;;;;36.53;15.45;;;;;;;4.94;83.29;99075.53;1649699;86;21009;-81
2021/11/22 17:11:36;;;;;;;35.70;15.58;;;;;;;4.95;83.45;99078.55;1641349;85;21101;-82
2021/11/22 17:14:05;;;;;;;41.58;13.93;;;;;;;4.99;83.53;99072.94;1632155;86;21589;-81
2021/11/22 17:16:32;;;;;;;38.10;14.40;;;;;;;5.03;83.49;99071.22;1669571;85;21111;-81
2021/11/22 17:19:08;;;;;;;33.80;13.62;;;;;;;5.06;83.55;99073.80;1640826;85;21039;-81
2021/11/22 17:21:28;;;;;;;39.78;15.20;;;;;;;5.12;83.62;99078.92;1658635;86;21090;-83
2021/11/22 17:23:54;;;;;;;42.08;17.60;;;;;;;5.15;83.58;99073.75;1650046;85;21060;-80
2021/11/22 17:26:21;;;;;;;40.25;15.83;;;;;;;5.19;83.61;99078.02;1656408;85;21024;-81
2021/11/22 17:28:49;;;;;;;45.30;16.02;;;;;;;5.22;83.63;99072.88;1643885;86;21083;-81
2021/11/22 17:31:17;;;;;;;45.70;15.08;;;;;;;5.23;83.72;99078.44;1643169;86;21104;-82
2021/11/22 17:33:44;;;;;;;41.35;14.35;;;;;;;5.27;83.63;99079.29;1645038;85;21027;-81
2021/11/22 17:36:11;;;;;;;39.65;15.55;;;;;;;5.33;83.76;99091.74;1659429;86;21083;-80
2021/11/22 17:38:37;;;;;;;55.17;19.02;;;;;;;5.37;83.83;99094.73;1639727;85;21024;-81
2021/11/22 17:41:04;;;;;;;42.27;18.20;;;;;;;5.41;83.57;99099.86;1657864;85;21073;-80
2021/11/22 17:43:34;;;;;;;38.42;15.70;;;;;;;5.42;83.24;99097.72;1650310;85;22120;-80
2021/11/22 17:46:01;;;;;;;34.90;13.72;;;;;;;5.42;83.04;99099.02;1654280;85;21016;-83
2021/11/22 17:48:27;;;;;;;33.85;14.68;;;;;;;5.42;83.03;99108.03;1621879;86;21035;-80
2021/11/22 17:50:56;;;;;;;32.65;14.20;;;;;;;5.36;82.85;99103.75;1648306;86;21046;-81
2021/11/22 17:53:25;;;;;;;30.20;14.15;;;;;;;5.30;82.74;99104.63;1642808;85;21047;-82
2021/11/22 17:55:55;;;;;;;36.68;14.78;;;;;;;5.22;82.59;99106.82;1646514;85;21061;-81
2021/11/22 17:58:24;;;;;;;33.83;15.40;;;;;;;5.16;82.64;99094.80;1634437;84;21109;-82
2021/11/22 18:00:52;;;;;;;34.30;13.72;;;;;;;5.13;82.84;99095.69;1637877;86;21078;-81
2021/11/22 18:03:20;;;;;;;31.87;14.47;;;;;;;5.11;82.99;99098.70;1632375;85;21116;-82
2021/11/22 18:05:46;;;;;;;33.40;15.38;;;;;;;5.08;82.96;99103.00;1637930;86;21647;-80
2021/11/22 18:08:13;;;;;;;38.60;17.12;;;;;;;5.06;82.96;99103.43;1629724;86;21404;-81
2021/11/22 18:10:41;;;;;;;56.42;23.50;;;;;;;5.03;83.04;99099.56;1644330;86;21050;-82
2021/11/22 18:13:07;;;;;;;67.87;26.42;;;;;;;4.98;83.12;99109.45;1634524;86;21086;-81
2021/11/22 18:15:34;;;;;;;67.92;27.30;;;;;;;4.92;83.31;99108.17;1642563;86;21086;-81
2021/11/22 18:18:01;;;;;;;63.60;26.62;;;;;;;4.91;83.25;99110.31;1637740;85;21040;-82
2021/11/22 18:20:28;;;;;;;157.95;55.15;;;;;;;4.91;83.45;99120.61;1642226;85;21101;-84
2021/11/22 18:22:54;;;;;;;59.10;25.85;;;;;;;4.90;83.23;99109.90;1639837;85;21098;-85
2021/11/22 18:25:21;;;;;;;46.37;18.75;;;;;;;4.87;83.22;99108.60;1648141;86;21045;-84
2021/11/22 18:27:49;;;;;;;44.05;18.92;;;;;;;4.82;83.58;99111.64;1643488;85;21131;-84
2021/11/22 18:30:17;;;;;;;51.25;20.20;;;;;;;4.83;83.65;99118.48;1678911;84;21095;-81
2021/11/22 18:32:44;;;;;;;73.25;25.72;;;;;;;4.86;83.53;99115.07;1655640;85;21194;-82
2021/11/22 18:35:12;;;;;;;45.03;20.35;;;;;;;4.87;83.66;99118.06;1661534;85;21078;-82
2021/11/22 18:37:38;;;;;;;37.08;14.13;;;;;;;4.90;83.78;99117.63;1672066;85;21090;-82
2021/11/22 18:40:07;;;;;;;36.93;14.95;;;;;;;4.92;83.68;99110.75;1660997;85;21012;-81
2021/11/22 18:42:34;;;;;;;33.98;14.50;;;;;;;4.94;83.83;99118.48;1680258;84;21075;-82
2021/11/22 18:45:04;;;;;;;35.52;15.50;;;;;;;4.95;83.83;99109.87;1631333;87;21146;-81
2021/11/22 18:47:31;;;;;;;37.17;14.20;;;;;;;5.01;83.96;99123.19;1655397;85;21085;-80
2021/11/22 18:49:57;;;;;;;32.65;14.20;;;;;;;5.11;84.11;99127.45;1646561;85;21000;-81
2021/11/22 18:52:24;;;;;;;33.73;14.68;;;;;;;5.18;83.77;99125.30;1651215;85;21114;-82
2021/11/22 18:54:51;;;;;;;36.48;15.32;;;;;;;5.24;83.74;99126.56;1658466;83;21079;-86
2021/11/22 18:57:19;;;;;;;37.67;15.35;;;;;;;5.29;83.70;99133.87;1675810;84;21044;-85
2021/11/22 18:59:49;;;;;;;38.83;16.42;;;;;;;5.32;83.38;99127.39;1677618;85;21371;-83
2021/11/22 19:02:16;;;;;;;36.35;16.20;;;;;;;5.37;83.33;99126.08;1666489;84;21622;-81